sensor_id;sensor_type;location;lat;lon;timestamp;pressure;altitude;pressure_sealevel;temperature;humidity
61136;BME280;47021;51.340;12.432;2023-03-14T00:01:18;97929.19;;;14.90;66.29
61136;BME280;47021;51.340;12.432;2023-03-14T00:03:57;97927.94;;;14.85;66.51
61136;BME280;47021;51.340;12.432;2023-03-14T00:06:22;97924.47;;;14.98;66.49
61136;BME280;47021;51.340;12.432;2023-03-14T00:08:49;97918.38;;;15.04;65.69
61136;BME280;47021;51.340;12.432;2023-03-14T00:11:17;97927.41;;;15.21;65.34
61136;BME280;47021;51.340;12.432;2023-03-14T00:13:43;97933.00;;;14.94;66.14
61136;BME280;47021;51.340;12.432;2023-03-14T00:16:14;97932.56;;;15.03;65.92
61136;BME280;47021;51.340;12.432;2023-03-14T00:18:46;97922.19;;;15.08;65.75
61136;BME280;47021;51.340;12.432;2023-03-14T00:21:21;97921.09;;;14.84;66.54
61136;BME280;47021;51.340;12.432;2023-03-14T00:23:47;97935.94;;;15.17;65.33
61136;BME280;47021;51.340;12.432;2023-03-14T00:26:13;97930.22;;;14.82;66.44
61136;BME280;47021;51.340;12.432;2023-03-14T00:28:39;97922.84;;;14.97;65.76
61136;BME280;47021;51.340;12.432;2023-03-14T00:31:07;97928.00;;;15.23;65.18
61136;BME280;47021;51.340;12.432;2023-03-14T00:33:34;97924.41;;;15.11;65.59
61136;BME280;47021;51.340;12.432;2023-03-14T00:36:08;97927.78;;;14.87;66.47
61136;BME280;47021;51.340;12.432;2023-03-14T00:38:48;97935.22;;;14.90;66.25
61136;BME280;47021;51.340;12.432;2023-03-14T00:41:15;97947.34;;;14.91;65.67
61136;BME280;47021;51.340;12.432;2023-03-14T00:49:21;97940.50;;;15.28;64.86
61136;BME280;47021;51.340;12.432;2023-03-14T00:51:47;97936.38;;;15.07;65.07
61136;BME280;47021;51.340;12.432;2023-03-14T00:54:30;97945.94;;;15.33;64.45
61136;BME280;47021;51.340;12.432;2023-03-14T00:59:40;97939.09;;;15.25;64.95
61136;BME280;47021;51.340;12.432;2023-03-14T01:03:33;97931.06;;;14.63;67.37
61136;BME280;47021;51.340;12.432;2023-03-14T01:08:42;97960.06;;;15.01;65.76
61136;BME280;47021;51.340;12.432;2023-03-14T01:11:10;97970.16;;;14.97;65.37
61136;BME280;47021;51.340;12.432;2023-03-14T01:16:21;97966.47;;;15.11;64.56
61136;BME280;47021;51.340;12.432;2023-03-14T01:21:37;97974.13;;;15.13;64.19
61136;BME280;47021;51.340;12.432;2023-03-14T01:24:17;97972.28;;;15.26;63.85
61136;BME280;47021;51.340;12.432;2023-03-14T01:26:42;97974.47;;;14.85;64.62
61136;BME280;47021;51.340;12.432;2023-03-14T01:29:21;97963.81;;;15.18;63.69
61136;BME280;47021;51.340;12.432;2023-03-14T01:31:47;97977.25;;;14.90;64.28
61136;BME280;47021;51.340;12.432;2023-03-14T01:34:14;97959.75;;;14.71;64.90
61136;BME280;47021;51.340;12.432;2023-03-14T01:36:39;97963.56;;;14.75;65.36
61136;BME280;47021;51.340;12.432;2023-03-14T01:39:10;97969.91;;;15.12;63.94
61136;BME280;47021;51.340;12.432;2023-03-14T01:44:20;97956.06;;;14.92;63.49
61136;BME280;47021;51.340;12.432;2023-03-14T01:46:52;97955.84;;;14.93;63.87
61136;BME280;47021;51.340;12.432;2023-03-14T01:54:44;97961.75;;;15.26;62.54
61136;BME280;47021;51.340;12.432;2023-03-14T01:57:11;97956.06;;;15.29;62.21
61136;BME280;47021;51.340;12.432;2023-03-14T02:02:32;97951.25;;;15.26;62.02
61136;BME280;47021;51.340;12.432;2023-03-14T02:04:59;97947.13;;;15.37;62.06
61136;BME280;47021;51.340;12.432;2023-03-14T02:07:27;97941.56;;;15.20;62.32
61136;BME280;47021;51.340;12.432;2023-03-14T02:10:03;97952.63;;;14.84;62.81
61136;BME280;47021;51.340;12.432;2023-03-14T02:12:43;97935.16;;;15.10;62.55
61136;BME280;47021;51.340;12.432;2023-03-14T02:15:08;97938.66;;;15.35;61.82
61136;BME280;47021;51.340;12.432;2023-03-14T02:17:35;97940.66;;;15.39;61.18
61136;BME280;47021;51.340;12.432;2023-03-14T02:20:11;97932.22;;;15.24;61.59
61136;BME280;47021;51.340;12.432;2023-03-14T02:22:45;97935.22;;;14.90;62.41
61136;BME280;47021;51.340;12.432;2023-03-14T02:27:39;97926.69;;;14.95;61.67
61136;BME280;47021;51.340;12.432;2023-03-14T02:35:39;97910.31;;;15.06;61.25
61136;BME280;47021;51.340;12.432;2023-03-14T02:41:00;97895.00;;;14.83;62.06
61136;BME280;47021;51.340;12.432;2023-03-14T02:43:35;97891.63;;;14.69;62.11
61136;BME280;47021;51.340;12.432;2023-03-14T02:46:00;97899.66;;;14.88;61.43
61136;BME280;47021;51.340;12.432;2023-03-14T02:51:10;97887.56;;;14.80;61.47
61136;BME280;47021;51.340;12.432;2023-03-14T02:53:42;97883.44;;;14.97;61.52
61136;BME280;47021;51.340;12.432;2023-03-14T02:56:09;97888.41;;;15.12;60.46
61136;BME280;47021;51.340;12.432;2023-03-14T02:58:35;97888.28;;;15.00;60.72
61136;BME280;47021;51.340;12.432;2023-03-14T03:01:00;97887.88;;;15.03;60.65
61136;BME280;47021;51.340;12.432;2023-03-14T03:03:25;97882.63;;;14.97;60.85
61136;BME280;47021;51.340;12.432;2023-03-14T03:05:59;97876.34;;;15.35;59.89
61136;BME280;47021;51.340;12.432;2023-03-14T03:08:25;97883.81;;;15.07;60.39
61136;BME280;47021;51.340;12.432;2023-03-14T03:10:59;97876.22;;;14.86;60.69
61136;BME280;47021;51.340;12.432;2023-03-14T03:13:31;97882.25;;;14.93;60.64
61136;BME280;47021;51.340;12.432;2023-03-14T03:16:06;97897.41;;;14.91;60.11
61136;BME280;47021;51.340;12.432;2023-03-14T03:18:33;97909.97;;;15.27;59.58
61136;BME280;47021;51.340;12.432;2023-03-14T03:21:03;97915.22;;;15.27;59.65
61136;BME280;47021;51.340;12.432;2023-03-14T03:26:12;97904.69;;;15.27;59.41
61136;BME280;47021;51.340;12.432;2023-03-14T03:28:43;97901.69;;;15.23;59.20
61136;BME280;47021;51.340;12.432;2023-03-14T03:31:27;97890.56;;;15.28;58.37
61136;BME280;47021;51.340;12.432;2023-03-14T03:34:05;97884.75;;;15.50;58.37
61136;BME280;47021;51.340;12.432;2023-03-14T03:36:33;97881.28;;;15.57;57.37
61136;BME280;47021;51.340;12.432;2023-03-14T03:38:59;97872.28;;;15.02;58.59
61136;BME280;47021;51.340;12.432;2023-03-14T03:41:25;97878.75;;;15.37;58.00
61136;BME280;47021;51.340;12.432;2023-03-14T03:43:50;97863.78;;;15.44;57.08
61136;BME280;47021;51.340;12.432;2023-03-14T03:46:28;97859.88;;;15.15;57.96
61136;BME280;47021;51.340;12.432;2023-03-14T03:49:10;97847.81;;;15.08;58.14
61136;BME280;47021;51.340;12.432;2023-03-14T03:51:53;97858.34;;;15.01;57.88
61136;BME280;47021;51.340;12.432;2023-03-14T03:54:19;97846.78;;;15.09;57.87
61136;BME280;47021;51.340;12.432;2023-03-14T03:56:45;97839.19;;;15.25;56.93
61136;BME280;47021;51.340;12.432;2023-03-14T03:59:10;97844.00;;;14.97;57.78
61136;BME280;47021;51.340;12.432;2023-03-14T04:01:35;97839.16;;;15.32;57.06
61136;BME280;47021;51.340;12.432;2023-03-14T04:04:00;97843.72;;;15.12;57.65
61136;BME280;47021;51.340;12.432;2023-03-14T04:06:43;97842.81;;;15.31;56.99
61136;BME280;47021;51.340;12.432;2023-03-14T04:09:11;97836.81;;;15.17;56.94
61136;BME280;47021;51.340;12.432;2023-03-14T04:11:37;97846.09;;;15.20;57.07
61136;BME280;47021;51.340;12.432;2023-03-14T04:14:05;97839.53;;;15.35;57.03
61136;BME280;47021;51.340;12.432;2023-03-14T04:16:38;97838.09;;;15.39;56.98
61136;BME280;47021;51.340;12.432;2023-03-14T04:19:05;97843.44;;;15.26;57.33
61136;BME280;47021;51.340;12.432;2023-03-14T04:21:44;97843.59;;;15.31;57.06
61136;BME280;47021;51.340;12.432;2023-03-14T04:24:09;97845.19;;;15.01;57.79
61136;BME280;47021;51.340;12.432;2023-03-14T04:29:18;97832.75;;;15.21;57.55
61136;BME280;47021;51.340;12.432;2023-03-14T04:31:44;97843.59;;;15.00;57.98
61136;BME280;47021;51.340;12.432;2023-03-14T04:34:10;97838.00;;;15.21;57.77
61136;BME280;47021;51.340;12.432;2023-03-14T04:36:35;97832.31;;;15.24;57.51
61136;BME280;47021;51.340;12.432;2023-03-14T04:39:08;97824.91;;;15.46;57.22
61136;BME280;47021;51.340;12.432;2023-03-14T04:41:36;97824.72;;;15.41;57.33
61136;BME280;47021;51.340;12.432;2023-03-14T04:44:07;97827.34;;;15.41;56.94
61136;BME280;47021;51.340;12.432;2023-03-14T04:46:32;97827.03;;;15.00;58.28
61136;BME280;47021;51.340;12.432;2023-03-14T04:48:59;97821.91;;;15.11;57.65
61136;BME280;47021;51.340;12.432;2023-03-14T04:51:31;97816.75;;;15.23;57.60
61136;BME280;47021;51.340;12.432;2023-03-14T04:54:10;97821.38;;;15.27;57.75
61136;BME280;47021;51.340;12.432;2023-03-14T04:56:35;97807.25;;;15.22;57.29
61136;BME280;47021;51.340;12.432;2023-03-14T04:59:01;97803.09;;;15.39;56.98
61136;BME280;47021;51.340;12.432;2023-03-14T05:04:10;97805.81;;;15.26;57.02
61136;BME280;47021;51.340;12.432;2023-03-14T05:09:19;97796.66;;;15.04;57.98
61136;BME280;47021;51.340;12.432;2023-03-14T05:11:44;97796.81;;;14.84;58.68
61136;BME280;47021;51.340;12.432;2023-03-14T05:14:09;97796.47;;;15.05;58.02
61136;BME280;47021;51.340;12.432;2023-03-14T05:16:52;97793.91;;;14.61;59.13
61136;BME280;47021;51.340;12.432;2023-03-14T05:19:19;97797.47;;;15.04;57.83
61136;BME280;47021;51.340;12.432;2023-03-14T05:21:46;97794.03;;;14.72;58.48
61136;BME280;47021;51.340;12.432;2023-03-14T05:24:11;97788.81;;;14.97;57.66
61136;BME280;47021;51.340;12.432;2023-03-14T05:26:49;97795.88;;;15.03;57.87
61136;BME280;47021;51.340;12.432;2023-03-14T05:29:15;97791.41;;;14.72;58.01
61136;BME280;47021;51.340;12.432;2023-03-14T05:31:48;97788.84;;;14.59;58.63
61136;BME280;47021;51.340;12.432;2023-03-14T05:34:15;97791.00;;;15.07;57.87
61136;BME280;47021;51.340;12.432;2023-03-14T05:36:42;97783.53;;;15.04;57.31
61136;BME280;47021;51.340;12.432;2023-03-14T05:39:08;97779.50;;;15.01;57.35
61136;BME280;47021;51.340;12.432;2023-03-14T05:41:33;97778.31;;;14.97;57.76
61136;BME280;47021;51.340;12.432;2023-03-14T05:44:00;97778.91;;;14.68;57.90
61136;BME280;47021;51.340;12.432;2023-03-14T05:46:31;97790.00;;;14.70;57.97
61136;BME280;47021;51.340;12.432;2023-03-14T05:48:56;97782.03;;;14.83;57.38
61136;BME280;47021;51.340;12.432;2023-03-14T05:51:35;97776.28;;;14.99;57.28
61136;BME280;47021;51.340;12.432;2023-03-14T05:56:44;97781.75;;;14.66;57.62
61136;BME280;47021;51.340;12.432;2023-03-14T05:59:12;97783.53;;;15.04;57.24
61136;BME280;47021;51.340;12.432;2023-03-14T06:01:39;97789.47;;;15.24;56.40
61136;BME280;47021;51.340;12.432;2023-03-14T06:04:04;97798.47;;;15.10;56.71
61136;BME280;47021;51.340;12.432;2023-03-14T06:06:32;97796.13;;;14.95;57.24
61136;BME280;47021;51.340;12.432;2023-03-14T06:08:57;97794.06;;;15.28;56.21
61136;BME280;47021;51.340;12.432;2023-03-14T06:11:34;97795.47;;;15.31;56.34
61136;BME280;47021;51.340;12.432;2023-03-14T06:14:06;97795.03;;;15.09;56.47
61136;BME280;47021;51.340;12.432;2023-03-14T06:16:33;97801.47;;;15.38;56.37
61136;BME280;47021;51.340;12.432;2023-03-14T06:18:58;97797.47;;;15.35;56.18
61136;BME280;47021;51.340;12.432;2023-03-14T06:21:24;97792.16;;;15.42;55.80
61136;BME280;47021;51.340;12.432;2023-03-14T06:26:40;97790.47;;;15.23;56.48
61136;BME280;47021;51.340;12.432;2023-03-14T06:29:07;97790.88;;;15.26;56.11
61136;BME280;47021;51.340;12.432;2023-03-14T06:34:28;97779.41;;;15.14;56.53
61136;BME280;47021;51.340;12.432;2023-03-14T06:36:55;97774.34;;;15.13;56.84
61136;BME280;47021;51.340;12.432;2023-03-14T06:42:17;97781.47;;;15.12;56.46
61136;BME280;47021;51.340;12.432;2023-03-14T06:44:51;97784.88;;;15.13;56.81
61136;BME280;47021;51.340;12.432;2023-03-14T06:47:19;97787.47;;;15.19;56.16
61136;BME280;47021;51.340;12.432;2023-03-14T06:49:45;97785.09;;;15.11;56.25
61136;BME280;47021;51.340;12.432;2023-03-14T06:52:11;97787.59;;;15.00;56.70
61136;BME280;47021;51.340;12.432;2023-03-14T06:54:37;97798.53;;;15.28;55.90
61136;BME280;47021;51.340;12.432;2023-03-14T06:59:45;97799.38;;;14.91;56.79
61136;BME280;47021;51.340;12.432;2023-03-14T07:02:26;97804.00;;;15.26;55.85
61136;BME280;47021;51.340;12.432;2023-03-14T07:04:51;97811.63;;;15.34;55.51
61136;BME280;47021;51.340;12.432;2023-03-14T07:07:34;97806.72;;;15.38;55.61
61136;BME280;47021;51.340;12.432;2023-03-14T07:12:30;97790.22;;;15.31;55.07
61136;BME280;47021;51.340;12.432;2023-03-14T07:14:55;97811.44;;;15.29;55.24
61136;BME280;47021;51.340;12.432;2023-03-14T07:17:21;97794.56;;;15.19;55.48
61136;BME280;47021;51.340;12.432;2023-03-14T07:19:58;97790.16;;;15.37;55.20
61136;BME280;47021;51.340;12.432;2023-03-14T07:22:23;97778.53;;;15.51;55.11
61136;BME280;47021;51.340;12.432;2023-03-14T07:24:48;97765.00;;;15.23;55.12
61136;BME280;47021;51.340;12.432;2023-03-14T07:27:19;97770.19;;;15.54;54.50
61136;BME280;47021;51.340;12.432;2023-03-14T07:29:51;97784.63;;;15.70;54.12
61136;BME280;47021;51.340;12.432;2023-03-14T07:32:33;97773.69;;;15.91;53.01
61136;BME280;47021;51.340;12.432;2023-03-14T07:34:59;97775.97;;;15.88;53.39
61136;BME280;47021;51.340;12.432;2023-03-14T07:37:26;97780.56;;;16.29;52.69
61136;BME280;47021;51.340;12.432;2023-03-14T07:39:58;97777.84;;;16.17;52.49
61136;BME280;47021;51.340;12.432;2023-03-14T07:42:23;97779.41;;;16.06;52.49
61136;BME280;47021;51.340;12.432;2023-03-14T07:44:49;97784.28;;;16.39;52.54
61136;BME280;47021;51.340;12.432;2023-03-14T07:47:14;97780.50;;;15.99;52.75
61136;BME280;47021;51.340;12.432;2023-03-14T07:49:40;97788.91;;;16.25;52.29
61136;BME280;47021;51.340;12.432;2023-03-14T07:52:11;97791.44;;;16.32;52.47
61136;BME280;47021;51.340;12.432;2023-03-14T07:54:36;97792.66;;;16.54;51.75
61136;BME280;47021;51.340;12.432;2023-03-14T07:59:46;97811.22;;;16.59;51.92
61136;BME280;47021;51.340;12.432;2023-03-14T08:02:12;97798.53;;;16.50;51.64
61136;BME280;47021;51.340;12.432;2023-03-14T08:04:55;97805.34;;;16.39;52.03
61136;BME280;47021;51.340;12.432;2023-03-14T08:07:21;97800.16;;;16.14;52.48
61136;BME280;47021;51.340;12.432;2023-03-14T08:09:47;97803.53;;;16.21;51.69
61136;BME280;47021;51.340;12.432;2023-03-14T08:14:56;97791.75;;;16.06;52.58
61136;BME280;47021;51.340;12.432;2023-03-14T08:17:22;97781.56;;;16.46;52.12
61136;BME280;47021;51.340;12.432;2023-03-14T08:19:54;97781.69;;;16.69;51.36
61136;BME280;47021;51.340;12.432;2023-03-14T08:22:21;97777.56;;;16.61;51.22
61136;BME280;47021;51.340;12.432;2023-03-14T08:24:46;97775.66;;;16.32;51.76
61136;BME280;47021;51.340;12.432;2023-03-14T08:27:17;97781.31;;;16.17;52.19
61136;BME280;47021;51.340;12.432;2023-03-14T08:29:42;97777.03;;;16.35;51.97
61136;BME280;47021;51.340;12.432;2023-03-14T08:32:17;97770.75;;;16.54;52.11
61136;BME280;47021;51.340;12.432;2023-03-14T08:34:43;97764.19;;;16.74;51.37
61136;BME280;47021;51.340;12.432;2023-03-14T08:37:21;97763.13;;;17.05;50.94
61136;BME280;47021;51.340;12.432;2023-03-14T08:42:38;97761.56;;;17.27;50.53
61136;BME280;47021;51.340;12.432;2023-03-14T08:45:05;97763.16;;;17.40;50.16
61136;BME280;47021;51.340;12.432;2023-03-14T08:50:21;97764.06;;;17.11;50.97
61136;BME280;47021;51.340;12.432;2023-03-14T08:52:46;97764.66;;;17.36;49.63
61136;BME280;47021;51.340;12.432;2023-03-14T08:55:20;97763.88;;;17.47;49.91
61136;BME280;47021;51.340;12.432;2023-03-14T09:03:13;97763.78;;;17.77;48.79
61136;BME280;47021;51.340;12.432;2023-03-14T09:05:38;97753.97;;;17.19;50.22
61136;BME280;47021;51.340;12.432;2023-03-14T09:08:04;97761.94;;;17.77;48.67
61136;BME280;47021;51.340;12.432;2023-03-14T09:10:29;97761.50;;;17.80;48.63
61136;BME280;47021;51.340;12.432;2023-03-14T09:12:55;97764.34;;;17.67;48.40
61136;BME280;47021;51.340;12.432;2023-03-14T09:15:21;97761.09;;;18.11;48.13
61136;BME280;47021;51.340;12.432;2023-03-14T09:17:53;97758.66;;;18.61;47.18
61136;BME280;47021;51.340;12.432;2023-03-14T09:20:28;97762.44;;;18.25;48.02
61136;BME280;47021;51.340;12.432;2023-03-14T09:23:01;97767.66;;;18.60;46.42
61136;BME280;47021;51.340;12.432;2023-03-14T09:28:10;97758.50;;;18.40;47.40
61136;BME280;47021;51.340;12.432;2023-03-14T09:30:41;97760.75;;;18.19;47.59
61136;BME280;47021;51.340;12.432;2023-03-14T09:33:20;97760.03;;;18.24;47.68
61136;BME280;47021;51.340;12.432;2023-03-14T09:35:53;97769.56;;;18.25;48.07
61136;BME280;47021;51.340;12.432;2023-03-14T09:38:20;97767.53;;;18.55;46.97
61136;BME280;47021;51.340;12.432;2023-03-14T09:40:47;97767.03;;;18.30;47.38
61136;BME280;47021;51.340;12.432;2023-03-14T09:43:19;97762.81;;;18.57;46.96
61136;BME280;47021;51.340;12.432;2023-03-14T09:45:59;97762.97;;;18.39;47.10
61136;BME280;47021;51.340;12.432;2023-03-14T09:48:41;97776.34;;;18.72;46.41
61136;BME280;47021;51.340;12.432;2023-03-14T09:51:20;97779.19;;;18.71;46.28
61136;BME280;47021;51.340;12.432;2023-03-14T09:53:53;97776.03;;;18.17;47.38
61136;BME280;47021;51.340;12.432;2023-03-14T09:56:30;97786.69;;;18.22;47.12
61136;BME280;47021;51.340;12.432;2023-03-14T09:58:58;97783.06;;;18.80;46.13
61136;BME280;47021;51.340;12.432;2023-03-14T10:06:58;97782.75;;;18.37;46.62
61136;BME280;47021;51.340;12.432;2023-03-14T10:12:19;97773.19;;;17.96;46.86
61136;BME280;47021;51.340;12.432;2023-03-14T10:14:51;97772.47;;;18.00;46.82
61136;BME280;47021;51.340;12.432;2023-03-14T10:20:00;97768.44;;;18.09;46.65
61136;BME280;47021;51.340;12.432;2023-03-14T10:22:39;97782.34;;;17.47;47.88
61136;BME280;47021;51.340;12.432;2023-03-14T10:25:10;97766.91;;;17.74;47.20
61136;BME280;47021;51.340;12.432;2023-03-14T10:27:53;97781.06;;;17.38;48.00
61136;BME280;47021;51.340;12.432;2023-03-14T10:33:09;97788.78;;;17.74;47.30
61136;BME280;47021;51.340;12.432;2023-03-14T10:38:16;97796.97;;;17.20;48.74
61136;BME280;47021;51.340;12.432;2023-03-14T10:40:54;97805.72;;;17.32;47.61
61136;BME280;47021;51.340;12.432;2023-03-14T10:43:25;97800.84;;;17.70;47.74
61136;BME280;47021;51.340;12.432;2023-03-14T10:45:51;97795.81;;;17.80;46.89
61136;BME280;47021;51.340;12.432;2023-03-14T10:48:32;97801.91;;;17.57;47.12
61136;BME280;47021;51.340;12.432;2023-03-14T10:56:26;97795.25;;;17.55;47.24
61136;BME280;47021;51.340;12.432;2023-03-14T10:59:00;97794.44;;;17.89;46.87
61136;BME280;47021;51.340;12.432;2023-03-14T11:11:52;97807.13;;;17.46;48.44
61136;BME280;47021;51.340;12.432;2023-03-14T11:14:30;97805.50;;;17.45;48.09
61136;BME280;47021;51.340;12.432;2023-03-14T11:30:13;97795.22;;;18.01;48.98
61136;BME280;47021;51.340;12.432;2023-03-14T11:32:45;97783.97;;;18.06;49.19
61136;BME280;47021;51.340;12.432;2023-03-14T11:40:46;97788.00;;;18.60;47.48
61136;BME280;47021;51.340;12.432;2023-03-14T11:48:56;97790.84;;;19.15;46.68
61136;BME280;47021;51.340;12.432;2023-03-14T11:51:36;97799.94;;;18.90;46.71
61136;BME280;47021;51.340;12.432;2023-03-14T12:02:05;97775.69;;;19.60;45.88
61136;BME280;47021;51.340;12.432;2023-03-14T12:07:20;97781.66;;;18.89;46.81
61136;BME280;47021;51.340;12.432;2023-03-14T12:09:51;97771.38;;;19.37;46.10
61136;BME280;47021;51.340;12.432;2023-03-14T12:12:24;97766.19;;;19.42;45.88
61136;BME280;47021;51.340;12.432;2023-03-14T12:14:59;97762.72;;;19.58;45.32
61136;BME280;47021;51.340;12.432;2023-03-14T12:22:36;97761.47;;;19.16;45.84
61136;BME280;47021;51.340;12.432;2023-03-14T12:25:13;97772.03;;;18.03;48.21
61136;BME280;47021;51.340;12.432;2023-03-14T12:28:03;97759.16;;;18.07;47.83
61136;BME280;47021;51.340;12.432;2023-03-14T12:30:38;97791.38;;;18.32;47.32
61136;BME280;47021;51.340;12.432;2023-03-14T12:33:12;97779.53;;;17.60;51.36
61136;BME280;47021;51.340;12.432;2023-03-14T12:44:37;97771.66;;;18.11;52.50
61136;BME280;47021;51.340;12.432;2023-03-14T12:49:39;97758.81;;;18.15;50.00
61136;BME280;47021;51.340;12.432;2023-03-14T12:52:22;97751.28;;;18.35;50.00
61136;BME280;47021;51.340;12.432;2023-03-14T13:02:59;97744.41;;;19.07;47.84
61136;BME280;47021;51.340;12.432;2023-03-14T13:05:28;97737.00;;;18.48;47.52
61136;BME280;47021;51.340;12.432;2023-03-14T13:08:10;97738.09;;;18.63;47.94
61136;BME280;47021;51.340;12.432;2023-03-14T13:13:27;97719.41;;;18.53;47.85
61136;BME280;47021;51.340;12.432;2023-03-14T13:15:54;97710.91;;;19.29;46.27
61136;BME280;47021;51.340;12.432;2023-03-14T13:21:07;97692.78;;;18.88;46.10
61136;BME280;47021;51.340;12.432;2023-03-14T13:23:32;97695.66;;;18.86;46.55
61136;BME280;47021;51.340;12.432;2023-03-14T13:28:42;97705.84;;;19.28;45.12
61136;BME280;47021;51.340;12.432;2023-03-14T13:31:18;97702.41;;;19.44;44.84
61136;BME280;47021;51.340;12.432;2023-03-14T13:33:44;97709.22;;;19.40;44.86
61136;BME280;47021;51.340;12.432;2023-03-14T13:36:12;97710.31;;;19.60;44.44
61136;BME280;47021;51.340;12.432;2023-03-14T13:38:38;97712.69;;;19.79;44.17
61136;BME280;47021;51.340;12.432;2023-03-14T13:41:04;97715.22;;;19.68;44.65
61136;BME280;47021;51.340;12.432;2023-03-14T13:43:30;97711.41;;;19.81;45.00
61136;BME280;47021;51.340;12.432;2023-03-14T13:48:43;97704.94;;;20.37;43.35
61136;BME280;47021;51.340;12.432;2023-03-14T13:53:54;97712.06;;;19.71;43.10
61136;BME280;47021;51.340;12.432;2023-03-14T13:56:20;97696.78;;;19.79;43.03
61136;BME280;47021;51.340;12.432;2023-03-14T13:58:58;97698.63;;;19.56;43.21
61136;BME280;47021;51.340;12.432;2023-03-14T14:04:08;97698.06;;;20.19;43.00
61136;BME280;47021;51.340;12.432;2023-03-14T14:06:37;97691.44;;;20.65;42.06
61136;BME280;47021;51.340;12.432;2023-03-14T14:12:06;97693.53;;;20.15;42.24
61136;BME280;47021;51.340;12.432;2023-03-14T14:17:20;97692.00;;;19.76;42.10
61136;BME280;47021;51.340;12.432;2023-03-14T14:19:49;97701.59;;;18.93;43.47
61136;BME280;47021;51.340;12.432;2023-03-14T14:25:04;97705.84;;;19.83;42.52
61136;BME280;47021;51.340;12.432;2023-03-14T14:27:37;97716.91;;;19.08;43.86
61136;BME280;47021;51.340;12.432;2023-03-14T14:32:49;97706.16;;;19.15;43.41
61136;BME280;47021;51.340;12.432;2023-03-14T14:35:26;97715.72;;;18.14;45.17
61136;BME280;47021;51.340;12.432;2023-03-14T14:37:53;97718.19;;;18.32;45.29
61136;BME280;47021;51.340;12.432;2023-03-14T14:40:27;97715.91;;;18.64;45.22
61136;BME280;47021;51.340;12.432;2023-03-14T14:42:54;97720.34;;;18.92;45.06
61136;BME280;47021;51.340;12.432;2023-03-14T14:45:41;97710.25;;;18.89;45.13
61136;BME280;47021;51.340;12.432;2023-03-14T14:51:01;97711.22;;;18.83;45.06
61136;BME280;47021;51.340;12.432;2023-03-14T14:58:36;97720.06;;;17.81;47.81
61136;BME280;47021;51.340;12.432;2023-03-14T15:03:42;97768.16;;;17.59;52.18
61136;BME280;47021;51.340;12.432;2023-03-14T15:06:08;97771.41;;;17.20;54.53
61136;BME280;47021;51.340;12.432;2023-03-14T15:08:36;97790.25;;;16.46;57.83
61136;BME280;47021;51.340;12.432;2023-03-14T15:11:18;97793.28;;;16.68;57.78
61136;BME280;47021;51.340;12.432;2023-03-14T15:13:51;97791.59;;;16.85;57.25
61136;BME280;47021;51.340;12.432;2023-03-14T15:16:25;97823.13;;;16.44;58.95
61136;BME280;47021;51.340;12.432;2023-03-14T15:21:47;97957.81;;;12.67;69.04
61136;BME280;47021;51.340;12.432;2023-03-14T15:24:21;97988.69;;;11.53;72.00
61136;BME280;47021;51.340;12.432;2023-03-14T15:26:47;98005.59;;;10.19;75.66
61136;BME280;47021;51.340;12.432;2023-03-14T15:29:14;98029.41;;;9.70;77.72
61136;BME280;47021;51.340;12.432;2023-03-14T15:31:42;98041.22;;;9.58;76.92
61136;BME280;47021;51.340;12.432;2023-03-14T15:34:15;98081.75;;;9.83;76.61
61136;BME280;47021;51.340;12.432;2023-03-14T15:36:46;98098.72;;;9.18;76.16
61136;BME280;47021;51.340;12.432;2023-03-14T15:39:29;98095.69;;;8.90;77.05
61136;BME280;47021;51.340;12.432;2023-03-14T15:41:56;98111.41;;;9.21;76.64
61136;BME280;47021;51.340;12.432;2023-03-14T15:44:22;98150.69;;;8.39;78.04
61136;BME280;47021;51.340;12.432;2023-03-14T15:49:31;98185.19;;;7.91;76.77
61136;BME280;47021;51.340;12.432;2023-03-14T15:51:58;98192.41;;;8.13;76.35
61136;BME280;47021;51.340;12.432;2023-03-14T15:54:35;98237.38;;;7.64;77.32
61136;BME280;47021;51.340;12.432;2023-03-14T15:57:01;98227.28;;;7.95;76.09
61136;BME280;47021;51.340;12.432;2023-03-14T15:59:45;98224.84;;;8.01;76.48
61136;BME280;47021;51.340;12.432;2023-03-14T16:02:10;98246.06;;;7.80;76.75
61136;BME280;47021;51.340;12.432;2023-03-14T16:04:35;98266.31;;;7.77;76.44
61136;BME280;47021;51.340;12.432;2023-03-14T16:07:00;98312.47;;;7.57;76.91
61136;BME280;47021;51.340;12.432;2023-03-14T16:09:27;98302.88;;;7.24;77.53
61136;BME280;47021;51.340;12.432;2023-03-14T16:12:06;98323.00;;;7.30;77.14
61136;BME280;47021;51.340;12.432;2023-03-14T16:14:31;98368.56;;;7.07;75.99
61136;BME280;47021;51.340;12.432;2023-03-14T16:16:57;98328.81;;;7.24;76.50
61136;BME280;47021;51.340;12.432;2023-03-14T16:19:24;98377.16;;;7.25;76.16
61136;BME280;47021;51.340;12.432;2023-03-14T16:21:50;98372.91;;;7.06;76.98
61136;BME280;47021;51.340;12.432;2023-03-14T16:26:59;98371.38;;;7.13;76.17
61136;BME280;47021;51.340;12.432;2023-03-14T16:29:32;98440.00;;;6.57;77.79
61136;BME280;47021;51.340;12.432;2023-03-14T16:34:59;98438.34;;;6.56;77.19
61136;BME280;47021;51.340;12.432;2023-03-14T16:37:26;98476.53;;;6.63;76.70
61136;BME280;47021;51.340;12.432;2023-03-14T16:39:53;98494.13;;;6.96;76.57
61136;BME280;47021;51.340;12.432;2023-03-14T16:42:19;98487.47;;;6.11;77.70
61136;BME280;47021;51.340;12.432;2023-03-14T16:44:52;98509.84;;;6.12;77.29
61136;BME280;47021;51.340;12.432;2023-03-14T16:47:17;98515.28;;;5.51;77.75
61136;BME280;47021;51.340;12.432;2023-03-14T16:49:44;98538.00;;;5.48;77.35
61136;BME280;47021;51.340;12.432;2023-03-14T16:52:10;98540.50;;;5.68;77.30
61136;BME280;47021;51.340;12.432;2023-03-14T16:54:35;98574.31;;;6.05;76.77